AUA4EW EDDH-EDDN
Flight info
| Callsign | AUA4EW |
|---|---|
| Flight time | N/A |
| Altitude | 39000 |
| Route | AMLUH2G AMLUH M852 DENIX DCT ZUCKA DCT GALMA M736 TABAT Q244 NIBIL/N0401F230 Q244 PIVIR PIVIR1V |
| Aircraft | A320/M-SDE3FGHIRWY/LB1 |
Departure
| Time | 2026-04-25 14:40 |
|---|---|
| Airport | Hamburg Helmut Schmidt Airport (EDDH) |
Arrival
| Time | N/A |
|---|---|
| Airport | Nuremberg Airport (EDDN) |
| Time | Latitude | Longitude | Altitude | Speed | Heading |
|---|---|---|---|---|---|
| 2026-04-25 14:04 | 53.63107 | 10.00400 | 46 ft | 0 kts | 85° |
| 2026-04-25 14:30 | 53.63105 | 10.00372 | 46 ft | 2 kts | 85° |
| 2026-04-25 14:30 | 53.63104 | 10.00345 | 46 ft | 2 kts | 85° |
| 2026-04-25 14:31 | 53.63103 | 10.00317 | 46 ft | 2 kts | 88° |
| 2026-04-25 14:31 | 53.63102 | 10.00288 | 46 ft | 2 kts | 88° |
| 2026-04-25 14:31 | 53.63101 | 10.00260 | 46 ft | 2 kts | 93° |
| 2026-04-25 14:31 | 53.63107 | 10.00235 | 44 ft | 1 kts | 163° |
| 2026-04-25 14:32 | 53.63107 | 10.00234 | 44 ft | 0 kts | 164° |
| 2026-04-25 14:33 | 53.63103 | 10.00236 | 45 ft | 4 kts | 166° |
| 2026-04-25 14:33 | 53.63051 | 10.00183 | 45 ft | 13 kts | 214° |
| 2026-04-25 14:33 | 53.62978 | 10.00097 | 44 ft | 13 kts | 216° |
| 2026-04-25 14:34 | 53.62907 | 10.00038 | 46 ft | 11 kts | 180° |
| 2026-04-25 14:34 | 53.62898 | 10.00039 | 46 ft | 0 kts | 178° |
| 2026-04-25 14:34 | 53.62851 | 10.00054 | 46 ft | 19 kts | 169° |
| 2026-04-25 14:34 | 53.62713 | 10.00209 | 46 ft | 26 kts | 153° |
| 2026-04-25 14:35 | 53.62578 | 10.00220 | 47 ft | 16 kts | 248° |
| 2026-04-25 14:35 | 53.62568 | 10.00192 | 47 ft | 0 kts | 237° |
| 2026-04-25 14:38 | 53.62558 | 10.00164 | 47 ft | 9 kts | 240° |
| 2026-04-25 14:38 | 53.62540 | 10.00061 | 47 ft | 9 kts | 275° |
| 2026-04-25 14:38 | 53.62584 | 9.99989 | 47 ft | 0 kts | 330° |
| 2026-04-25 14:39 | 53.62604 | 9.99971 | 47 ft | 20 kts | 333° |
| 2026-04-25 14:39 | 53.62981 | 9.99645 | 46 ft | 98 kts | 332° |
| 2026-04-25 14:39 | 53.63770 | 9.98962 | 41 ft | 155 kts | 332° |
| 2026-04-25 14:40 | 53.64806 | 9.98063 | 400 ft | 173 kts | 333° |
| 2026-04-25 14:40 | 53.65906 | 9.97147 | 1008 ft | 176 kts | 333° |
| 2026-04-25 14:40 | 53.67017 | 9.96188 | 1620 ft | 188 kts | 332° |
| 2026-04-25 14:40 | 53.68249 | 9.95131 | 1994 ft | 210 kts | 336° |
| 2026-04-25 14:41 | 53.69715 | 9.94664 | 2667 ft | 219 kts | 0° |
| 2026-04-25 14:41 | 53.71242 | 9.94694 | 3541 ft | 220 kts | 1° |
| 2026-04-25 14:41 | 53.72729 | 9.95283 | 4355 ft | 225 kts | 32° |
| 2026-04-25 14:41 | 53.73803 | 9.97217 | 4863 ft | 231 kts | 66° |
| 2026-04-25 14:42 | 53.74133 | 9.99846 | 4988 ft | 229 kts | 84° |
| 2026-04-25 14:42 | 53.74187 | 10.00713 | 5003 ft | 229 kts | 86° |
| 2026-04-25 14:42 | 53.73689 | 10.05159 | 5020 ft | 252 kts | 117° |
| 2026-04-25 14:42 | 53.72801 | 10.07803 | 5012 ft | 268 kts | 120° |
| 2026-04-25 14:43 | 53.71874 | 10.10547 | 5015 ft | 270 kts | 120° |
| 2026-04-25 14:43 | 53.70949 | 10.13311 | 5015 ft | 271 kts | 120° |
| 2026-04-25 14:43 | 53.70027 | 10.16079 | 5015 ft | 270 kts | 120° |
| 2026-04-25 14:43 | 53.68914 | 10.18622 | 5014 ft | 270 kts | 135° |
| 2026-04-25 14:44 | 53.67445 | 10.20577 | 5015 ft | 270 kts | 150° |
| 2026-04-25 14:44 | 53.65727 | 10.21816 | 5017 ft | 269 kts | 165° |
| 2026-04-25 14:44 | 53.63915 | 10.22636 | 5017 ft | 269 kts | 165° |
| 2026-04-25 14:44 | 53.62107 | 10.23456 | 5016 ft | 269 kts | 165° |
| 2026-04-25 14:45 | 53.60298 | 10.24281 | 5018 ft | 269 kts | 165° |